sensor_id;sensor_type;location;lat;lon;timestamp;temperature;humidity
35027;DHT22;60696;51.426;6.934;2023-06-26T04:01:38;21.20;99.90
35027;DHT22;60696;51.426;6.934;2023-06-26T04:04:03;21.20;99.90
35027;DHT22;60696;51.426;6.934;2023-06-26T04:06:29;21.20;99.90
35027;DHT22;60696;51.426;6.934;2023-06-26T04:08:57;21.20;99.90
35027;DHT22;60696;51.426;6.934;2023-06-26T04:11:22;21.20;99.90
35027;DHT22;60696;51.426;6.934;2023-06-26T04:13:48;21.20;99.90
35027;DHT22;60696;51.426;6.934;2023-06-26T04:16:14;21.20;99.90
35027;DHT22;60696;51.426;6.934;2023-06-26T04:18:39;21.20;99.90
35027;DHT22;60696;51.426;6.934;2023-06-26T04:21:12;21.30;99.90
35027;DHT22;60696;51.426;6.934;2023-06-26T04:23:39;21.30;99.90
35027;DHT22;60696;51.426;6.934;2023-06-26T04:26:06;21.40;99.90
35027;DHT22;60696;51.426;6.934;2023-06-26T04:28:32;21.40;99.90
35027;DHT22;60696;51.426;6.934;2023-06-26T04:30:59;21.40;99.90
35027;DHT22;60696;51.426;6.934;2023-06-26T04:33:25;21.40;99.90
35027;DHT22;60696;51.426;6.934;2023-06-26T04:35:51;21.50;99.90
35027;DHT22;60696;51.426;6.934;2023-06-26T04:38:18;21.50;99.90
35027;DHT22;60696;51.426;6.934;2023-06-26T04:40:44;21.50;99.90
35027;DHT22;60696;51.426;6.934;2023-06-26T04:43:10;21.60;99.90
35027;DHT22;60696;51.426;6.934;2023-06-26T04:45:36;21.70;99.90
35027;DHT22;60696;51.426;6.934;2023-06-26T04:48:02;21.80;99.90
35027;DHT22;60696;51.426;6.934;2023-06-26T04:50:27;22.20;99.90
35027;DHT22;60696;51.426;6.934;2023-06-26T04:52:54;22.70;99.90
35027;DHT22;60696;51.426;6.934;2023-06-26T04:55:20;23.00;99.40
35027;DHT22;60696;51.426;6.934;2023-06-26T04:57:47;23.30;98.60
35027;DHT22;60696;51.426;6.934;2023-06-26T05:00:13;23.70;96.90
35027;DHT22;60696;51.426;6.934;2023-06-26T05:02:39;24.20;95.50
35027;DHT22;60696;51.426;6.934;2023-06-26T05:05:05;24.60;94.10
35027;DHT22;60696;51.426;6.934;2023-06-26T05:07:30;24.80;92.90
35027;DHT22;60696;51.426;6.934;2023-06-26T05:09:56;25.00;92.10
35027;DHT22;60696;51.426;6.934;2023-06-26T05:12:21;25.20;91.40
35027;DHT22;60696;51.426;6.934;2023-06-26T05:14:47;25.20;91.00
35027;DHT22;60696;51.426;6.934;2023-06-26T05:17:16;25.30;91.20
35027;DHT22;60696;51.426;6.934;2023-06-26T05:19:41;25.40;91.60
35027;DHT22;60696;51.426;6.934;2023-06-26T05:22:07;25.30;92.10
35027;DHT22;60696;51.426;6.934;2023-06-26T05:24:37;25.60;91.70
35027;DHT22;60696;51.426;6.934;2023-06-26T05:27:03;25.40;91.20
35027;DHT22;60696;51.426;6.934;2023-06-26T05:29:33;25.70;90.50
35027;DHT22;60696;51.426;6.934;2023-06-26T05:31:59;25.80;87.90
35027;DHT22;60696;51.426;6.934;2023-06-26T05:34:26;25.60;88.70
35027;DHT22;60696;51.426;6.934;2023-06-26T05:37:00;25.20;89.50
35027;DHT22;60696;51.426;6.934;2023-06-26T05:39:26;24.80;91.00
35027;DHT22;60696;51.426;6.934;2023-06-26T05:41:52;24.30;91.20
35027;DHT22;60696;51.426;6.934;2023-06-26T05:44:18;23.60;92.30
35027;DHT22;60696;51.426;6.934;2023-06-26T05:46:46;23.40;93.40
35027;DHT22;60696;51.426;6.934;2023-06-26T05:49:12;23.40;93.20
35027;DHT22;60696;51.426;6.934;2023-06-26T05:51:37;23.90;92.50
35027;DHT22;60696;51.426;6.934;2023-06-26T05:54:03;24.50;91.80
35027;DHT22;60696;51.426;6.934;2023-06-26T05:56:30;25.00;91.30
35027;DHT22;60696;51.426;6.934;2023-06-26T05:58:56;25.70;90.00
35027;DHT22;60696;51.426;6.934;2023-06-26T06:01:22;26.30;87.50
35027;DHT22;60696;51.426;6.934;2023-06-26T06:03:48;26.90;85.10
35027;DHT22;60696;51.426;6.934;2023-06-26T06:06:14;26.20;82.60
35027;DHT22;60696;51.426;6.934;2023-06-26T06:08:41;26.00;84.60
35027;DHT22;60696;51.426;6.934;2023-06-26T06:11:07;26.20;85.80
35027;DHT22;60696;51.426;6.934;2023-06-26T06:13:32;26.60;83.60
35027;DHT22;60696;51.426;6.934;2023-06-26T06:15:58;25.70;83.50
35027;DHT22;60696;51.426;6.934;2023-06-26T06:18:23;24.60;88.20
35027;DHT22;60696;51.426;6.934;2023-06-26T06:20:49;24.40;91.10
35027;DHT22;60696;51.426;6.934;2023-06-26T06:23:15;24.80;89.80
35027;DHT22;60696;51.426;6.934;2023-06-26T06:25:40;24.60;90.10
35027;DHT22;60696;51.426;6.934;2023-06-26T06:28:06;24.00;91.30
35027;DHT22;60696;51.426;6.934;2023-06-26T06:30:31;23.40;92.90
35027;DHT22;60696;51.426;6.934;2023-06-26T06:32:58;23.00;95.00
35027;DHT22;60696;51.426;6.934;2023-06-26T06:35:23;22.70;97.10
35027;DHT22;60696;51.426;6.934;2023-06-26T06:37:49;22.50;99.40
35027;DHT22;60696;51.426;6.934;2023-06-26T06:40:15;23.40;98.10
35027;DHT22;60696;51.426;6.934;2023-06-26T06:42:41;24.70;94.90
35027;DHT22;60696;51.426;6.934;2023-06-26T06:45:07;25.80;91.70
35027;DHT22;60696;51.426;6.934;2023-06-26T06:47:33;26.70;85.80
35027;DHT22;60696;51.426;6.934;2023-06-26T06:50:00;27.10;84.10
35027;DHT22;60696;51.426;6.934;2023-06-26T06:52:36;27.10;83.30
35027;DHT22;60696;51.426;6.934;2023-06-26T06:55:02;27.80;81.20
35027;DHT22;60696;51.426;6.934;2023-06-26T06:57:36;28.00;77.40
35027;DHT22;60696;51.426;6.934;2023-06-26T07:00:10;28.80;76.90
35027;DHT22;60696;51.426;6.934;2023-06-26T07:02:41;29.20;71.80
35027;DHT22;60696;51.426;6.934;2023-06-26T07:05:08;28.90;72.20
35027;DHT22;60696;51.426;6.934;2023-06-26T07:07:35;28.80;71.10
35027;DHT22;60696;51.426;6.934;2023-06-26T07:10:07;28.90;70.30
35027;DHT22;60696;51.426;6.934;2023-06-26T07:12:36;29.20;71.50
35027;DHT22;60696;51.426;6.934;2023-06-26T07:15:03;30.00;71.30
35027;DHT22;60696;51.426;6.934;2023-06-26T07:17:33;30.20;69.20
35027;DHT22;60696;51.426;6.934;2023-06-26T07:20:00;30.40;67.90
35027;DHT22;60696;51.426;6.934;2023-06-26T07:22:26;31.30;67.10
35027;DHT22;60696;51.426;6.934;2023-06-26T07:24:52;31.20;65.20
35027;DHT22;60696;51.426;6.934;2023-06-26T07:27:18;30.90;66.60
35027;DHT22;60696;51.426;6.934;2023-06-26T07:29:44;31.00;65.50
35027;DHT22;60696;51.426;6.934;2023-06-26T07:32:10;30.20;66.20
35027;DHT22;60696;51.426;6.934;2023-06-26T07:34:36;30.00;67.40
35027;DHT22;60696;51.426;6.934;2023-06-26T07:37:01;30.50;65.80
35027;DHT22;60696;51.426;6.934;2023-06-26T07:39:27;31.00;63.00
35027;DHT22;60696;51.426;6.934;2023-06-26T07:41:53;31.60;63.30
35027;DHT22;60696;51.426;6.934;2023-06-26T07:44:18;32.30;61.10
35027;DHT22;60696;51.426;6.934;2023-06-26T07:46:44;32.50;60.50
35027;DHT22;60696;51.426;6.934;2023-06-26T07:49:11;32.90;59.20
35027;DHT22;60696;51.426;6.934;2023-06-26T07:51:37;32.80;58.80
35027;DHT22;60696;51.426;6.934;2023-06-26T07:54:03;33.00;59.50
35027;DHT22;60696;51.426;6.934;2023-06-26T07:56:28;33.20;58.80
35027;DHT22;60696;51.426;6.934;2023-06-26T07:58:54;33.60;58.50
35027;DHT22;60696;51.426;6.934;2023-06-26T08:01:20;33.60;56.30
35027;DHT22;60696;51.426;6.934;2023-06-26T08:03:45;34.20;56.00
35027;DHT22;60696;51.426;6.934;2023-06-26T08:06:11;34.00;57.30
35027;DHT22;60696;51.426;6.934;2023-06-26T08:08:37;32.80;55.90
35027;DHT22;60696;51.426;6.934;2023-06-26T08:11:02;32.20;57.70
35027;DHT22;60696;51.426;6.934;2023-06-26T08:13:28;32.30;58.70
35027;DHT22;60696;51.426;6.934;2023-06-26T08:15:53;32.20;57.80
35027;DHT22;60696;51.426;6.934;2023-06-26T08:18:20;31.60;58.90
35027;DHT22;60696;51.426;6.934;2023-06-26T08:20:45;31.30;60.00
35027;DHT22;60696;51.426;6.934;2023-06-26T08:23:11;31.80;59.50
35027;DHT22;60696;51.426;6.934;2023-06-26T08:25:37;30.90;60.60
35027;DHT22;60696;51.426;6.934;2023-06-26T08:28:02;29.30;62.80
35027;DHT22;60696;51.426;6.934;2023-06-26T08:30:28;28.40;65.10
35027;DHT22;60696;51.426;6.934;2023-06-26T08:32:57;28.20;68.50
35027;DHT22;60696;51.426;6.934;2023-06-26T08:35:23;28.10;67.00
35027;DHT22;60696;51.426;6.934;2023-06-26T08:37:48;27.30;69.80
35027;DHT22;60696;51.426;6.934;2023-06-26T08:40:17;27.10;71.00
35027;DHT22;60696;51.426;6.934;2023-06-26T08:42:43;26.90;70.90
35027;DHT22;60696;51.426;6.934;2023-06-26T08:45:08;26.60;74.10
35027;DHT22;60696;51.426;6.934;2023-06-26T08:47:35;26.30;73.90
35027;DHT22;60696;51.426;6.934;2023-06-26T08:50:08;26.10;76.60
35027;DHT22;60696;51.426;6.934;2023-06-26T08:52:43;27.60;76.80
35027;DHT22;60696;51.426;6.934;2023-06-26T08:55:12;29.30;71.90
35027;DHT22;60696;51.426;6.934;2023-06-26T08:57:40;30.80;66.10
35027;DHT22;60696;51.426;6.934;2023-06-26T09:00:06;30.10;63.50
35027;DHT22;60696;51.426;6.934;2023-06-26T09:02:35;28.70;66.20
35027;DHT22;60696;51.426;6.934;2023-06-26T09:05:02;27.50;70.50
35027;DHT22;60696;51.426;6.934;2023-06-26T09:07:28;27.20;72.00
35027;DHT22;60696;51.426;6.934;2023-06-26T09:09:54;27.80;71.10
35027;DHT22;60696;51.426;6.934;2023-06-26T09:12:20;29.10;68.70
35027;DHT22;60696;51.426;6.934;2023-06-26T09:14:46;30.10;65.10
35027;DHT22;60696;51.426;6.934;2023-06-26T09:17:13;29.70;64.40
35027;DHT22;60696;51.426;6.934;2023-06-26T09:19:39;29.00;64.90
35027;DHT22;60696;51.426;6.934;2023-06-26T09:22:14;27.90;68.50
35027;DHT22;60696;51.426;6.934;2023-06-26T09:24:41;28.40;69.10
35027;DHT22;60696;51.426;6.934;2023-06-26T09:27:07;29.30;67.50
35027;DHT22;60696;51.426;6.934;2023-06-26T09:29:33;29.80;65.30
35027;DHT22;60696;51.426;6.934;2023-06-26T09:31:59;29.30;63.40
35027;DHT22;60696;51.426;6.934;2023-06-26T09:34:32;28.70;66.50
35027;DHT22;60696;51.426;6.934;2023-06-26T09:36:59;28.40;69.50
35027;DHT22;60696;51.426;6.934;2023-06-26T09:39:30;28.30;69.00
35027;DHT22;60696;51.426;6.934;2023-06-26T09:41:56;28.30;68.30
35027;DHT22;60696;51.426;6.934;2023-06-26T09:44:23;28.60;67.00
35027;DHT22;60696;51.426;6.934;2023-06-26T09:46:48;28.90;68.60
35027;DHT22;60696;51.426;6.934;2023-06-26T09:49:14;29.00;67.40
35027;DHT22;60696;51.426;6.934;2023-06-26T09:51:41;29.30;65.00
35027;DHT22;60696;51.426;6.934;2023-06-26T09:54:08;29.50;64.50
35027;DHT22;60696;51.426;6.934;2023-06-26T09:56:35;28.80;63.20
35027;DHT22;60696;51.426;6.934;2023-06-26T09:59:03;28.00;64.50
35027;DHT22;60696;51.426;6.934;2023-06-26T10:01:31;27.60;72.30
35027;DHT22;60696;51.426;6.934;2023-06-26T10:03:57;28.10;69.90
35027;DHT22;60696;51.426;6.934;2023-06-26T10:06:33;28.30;67.60
35027;DHT22;60696;51.426;6.934;2023-06-26T10:09:00;28.30;66.00
35027;DHT22;60696;51.426;6.934;2023-06-26T10:11:36;28.00;65.10
35027;DHT22;60696;51.426;6.934;2023-06-26T10:14:04;27.60;63.90
35027;DHT22;60696;51.426;6.934;2023-06-26T10:16:32;27.50;64.10
35027;DHT22;60696;51.426;6.934;2023-06-26T10:19:03;27.50;64.70
35027;DHT22;60696;51.426;6.934;2023-06-26T10:21:32;27.40;64.80
35027;DHT22;60696;51.426;6.934;2023-06-26T10:24:00;27.90;67.80
35027;DHT22;60696;51.426;6.934;2023-06-26T10:26:28;28.20;66.50
35027;DHT22;60696;51.426;6.934;2023-06-26T10:28:55;28.40;67.30
35027;DHT22;60696;51.426;6.934;2023-06-26T10:31:24;28.40;63.50
35027;DHT22;60696;51.426;6.934;2023-06-26T10:33:52;28.50;64.80
35027;DHT22;60696;51.426;6.934;2023-06-26T10:36:19;28.60;65.90
35027;DHT22;60696;51.426;6.934;2023-06-26T10:38:54;28.80;65.70
35027;DHT22;60696;51.426;6.934;2023-06-26T10:41:21;28.90;60.70
35027;DHT22;60696;51.426;6.934;2023-06-26T10:44:12;28.20;56.50
35027;DHT22;60696;51.426;6.934;2023-06-26T10:46:51;27.80;59.40
35027;DHT22;60696;51.426;6.934;2023-06-26T10:49:24;27.60;64.70
35027;DHT22;60696;51.426;6.934;2023-06-26T10:51:51;28.20;64.30
35027;DHT22;60696;51.426;6.934;2023-06-26T10:54:20;28.40;62.50
35027;DHT22;60696;51.426;6.934;2023-06-26T10:56:50;28.80;62.00
35027;DHT22;60696;51.426;6.934;2023-06-26T10:59:27;28.40;60.10
35027;DHT22;60696;51.426;6.934;2023-06-26T11:02:00;27.60;62.50
35027;DHT22;60696;51.426;6.934;2023-06-26T11:04:46;26.70;61.90
35027;DHT22;60696;51.426;6.934;2023-06-26T11:07:24;26.00;62.90
35027;DHT22;60696;51.426;6.934;2023-06-26T11:10:00;26.40;69.20
35027;DHT22;60696;51.426;6.934;2023-06-26T11:12:43;27.10;65.10
35027;DHT22;60696;51.426;6.934;2023-06-26T11:15:19;27.40;65.70
35027;DHT22;60696;51.426;6.934;2023-06-26T11:17:45;27.00;62.00
35027;DHT22;60696;51.426;6.934;2023-06-26T11:20:15;26.70;62.20
35027;DHT22;60696;51.426;6.934;2023-06-26T11:22:42;26.60;65.30
35027;DHT22;60696;51.426;6.934;2023-06-26T11:25:09;27.30;63.60
35027;DHT22;60696;51.426;6.934;2023-06-26T11:30:07;27.40;59.40
35027;DHT22;60696;51.426;6.934;2023-06-26T11:32:33;27.50;61.50
35027;DHT22;60696;51.426;6.934;2023-06-26T11:35:00;27.50;60.90
35027;DHT22;60696;51.426;6.934;2023-06-26T11:37:26;27.80;61.10
35027;DHT22;60696;51.426;6.934;2023-06-26T11:39:52;27.70;59.40
35027;DHT22;60696;51.426;6.934;2023-06-26T11:42:19;27.70;60.40
35027;DHT22;60696;51.426;6.934;2023-06-26T11:44:45;27.60;60.20
35027;DHT22;60696;51.426;6.934;2023-06-26T11:47:18;26.60;57.80
35027;DHT22;60696;51.426;6.934;2023-06-26T11:49:46;26.30;59.20
35027;DHT22;60696;51.426;6.934;2023-06-26T11:52:12;26.20;57.70
35027;DHT22;60696;51.426;6.934;2023-06-26T11:54:38;25.90;59.30
35027;DHT22;60696;51.426;6.934;2023-06-26T11:57:04;26.00;58.70
35027;DHT22;60696;51.426;6.934;2023-06-26T11:59:37;26.30;58.10
35027;DHT22;60696;51.426;6.934;2023-06-26T12:02:08;26.50;55.80
35027;DHT22;60696;51.426;6.934;2023-06-26T12:04:36;26.20;53.20
35027;DHT22;60696;51.426;6.934;2023-06-26T12:07:03;26.20;54.20
35027;DHT22;60696;51.426;6.934;2023-06-26T12:09:31;26.40;54.90
35027;DHT22;60696;51.426;6.934;2023-06-26T12:11:59;26.70;55.60
35027;DHT22;60696;51.426;6.934;2023-06-26T12:14:26;26.60;53.10
35027;DHT22;60696;51.426;6.934;2023-06-26T12:16:54;26.60;56.50
35027;DHT22;60696;51.426;6.934;2023-06-26T12:19:24;26.20;55.30
35027;DHT22;60696;51.426;6.934;2023-06-26T12:21:51;26.00;56.90
35027;DHT22;60696;51.426;6.934;2023-06-26T12:24:21;26.40;58.20
35027;DHT22;60696;51.426;6.934;2023-06-26T12:26:53;26.50;53.50
35027;DHT22;60696;51.426;6.934;2023-06-26T12:29:20;26.60;52.10
35027;DHT22;60696;51.426;6.934;2023-06-26T12:31:50;26.70;53.30
35027;DHT22;60696;51.426;6.934;2023-06-26T12:34:19;26.90;53.20
35027;DHT22;60696;51.426;6.934;2023-06-26T12:36:47;27.00;52.60
35027;DHT22;60696;51.426;6.934;2023-06-26T12:39:18;26.90;50.90
35027;DHT22;60696;51.426;6.934;2023-06-26T12:41:53;26.60;51.90
35027;DHT22;60696;51.426;6.934;2023-06-26T12:46:57;26.90;50.00
35027;DHT22;60696;51.426;6.934;2023-06-26T12:49:30;26.80;50.90
35027;DHT22;60696;51.426;6.934;2023-06-26T12:51:57;26.40;51.60
35027;DHT22;60696;51.426;6.934;2023-06-26T12:54:23;26.30;51.40
35027;DHT22;60696;51.426;6.934;2023-06-26T12:56:49;26.50;54.00
35027;DHT22;60696;51.426;6.934;2023-06-26T12:59:15;26.50;51.10
35027;DHT22;60696;51.426;6.934;2023-06-26T13:01:40;26.50;52.60
35027;DHT22;60696;51.426;6.934;2023-06-26T13:04:06;26.60;50.90
35027;DHT22;60696;51.426;6.934;2023-06-26T13:06:33;26.50;50.70
35027;DHT22;60696;51.426;6.934;2023-06-26T13:08:59;26.70;55.20
35027;DHT22;60696;51.426;6.934;2023-06-26T13:11:24;26.90;52.30
35027;DHT22;60696;51.426;6.934;2023-06-26T13:13:50;26.90;50.40
35027;DHT22;60696;51.426;6.934;2023-06-26T13:16:16;26.50;49.20
35027;DHT22;60696;51.426;6.934;2023-06-26T13:18:43;26.60;51.10
35027;DHT22;60696;51.426;6.934;2023-06-26T13:21:09;26.60;51.00
35027;DHT22;60696;51.426;6.934;2023-06-26T13:23:35;26.10;50.20
35027;DHT22;60696;51.426;6.934;2023-06-26T13:26:00;26.30;51.40
35027;DHT22;60696;51.426;6.934;2023-06-26T13:28:26;26.10;49.70
35027;DHT22;60696;51.426;6.934;2023-06-26T13:30:51;25.90;49.00
35027;DHT22;60696;51.426;6.934;2023-06-26T13:33:17;25.90;49.40
35027;DHT22;60696;51.426;6.934;2023-06-26T13:35:42;26.10;50.50
35027;DHT22;60696;51.426;6.934;2023-06-26T13:38:08;26.10;49.40
35027;DHT22;60696;51.426;6.934;2023-06-26T13:40:34;26.00;52.60
35027;DHT22;60696;51.426;6.934;2023-06-26T13:42:59;26.00;50.70
35027;DHT22;60696;51.426;6.934;2023-06-26T13:45:25;25.50;49.50
35027;DHT22;60696;51.426;6.934;2023-06-26T13:47:51;25.60;53.10
35027;DHT22;60696;51.426;6.934;2023-06-26T13:50:16;25.50;50.40
35027;DHT22;60696;51.426;6.934;2023-06-26T13:52:42;25.50;51.40
35027;DHT22;60696;51.426;6.934;2023-06-26T13:55:08;25.40;52.50
35027;DHT22;60696;51.426;6.934;2023-06-26T13:57:33;25.30;51.50
35027;DHT22;60696;51.426;6.934;2023-06-26T13:59:59;25.10;50.30
35027;DHT22;60696;51.426;6.934;2023-06-26T14:02:25;25.10;50.30
35027;DHT22;60696;51.426;6.934;2023-06-26T14:04:54;24.90;49.70
35027;DHT22;60696;51.426;6.934;2023-06-26T14:07:19;24.90;48.50
35027;DHT22;60696;51.426;6.934;2023-06-26T14:09:45;25.00;50.20
35027;DHT22;60696;51.426;6.934;2023-06-26T14:12:11;25.30;49.30
35027;DHT22;60696;51.426;6.934;2023-06-26T14:14:36;25.30;47.90
35027;DHT22;60696;51.426;6.934;2023-06-26T14:17:02;25.20;48.50
35027;DHT22;60696;51.426;6.934;2023-06-26T14:19:28;24.90;48.20
35027;DHT22;60696;51.426;6.934;2023-06-26T14:21:54;24.70;48.50
35027;DHT22;60696;51.426;6.934;2023-06-26T14:24:19;24.70;49.70
35027;DHT22;60696;51.426;6.934;2023-06-26T14:26:45;24.60;49.10
35027;DHT22;60696;51.426;6.934;2023-06-26T14:29:10;24.60;49.80
35027;DHT22;60696;51.426;6.934;2023-06-26T14:31:36;24.80;50.70
35027;DHT22;60696;51.426;6.934;2023-06-26T14:34:02;24.70;50.60
35027;DHT22;60696;51.426;6.934;2023-06-26T14:36:28;24.80;51.40
35027;DHT22;60696;51.426;6.934;2023-06-26T14:38:56;24.70;52.10
35027;DHT22;60696;51.426;6.934;2023-06-26T14:41:22;24.70;51.20
35027;DHT22;60696;51.426;6.934;2023-06-26T14:43:47;24.60;49.60
35027;DHT22;60696;51.426;6.934;2023-06-26T14:46:14;24.60;48.90
35027;DHT22;60696;51.426;6.934;2023-06-26T14:48:39;24.40;48.50
35027;DHT22;60696;51.426;6.934;2023-06-26T14:51:06;24.40;50.10
35027;DHT22;60696;51.426;6.934;2023-06-26T14:53:32;24.20;50.20
35027;DHT22;60696;51.426;6.934;2023-06-26T14:55:57;24.10;47.70
35027;DHT22;60696;51.426;6.934;2023-06-26T14:58:23;24.10;48.20
35027;DHT22;60696;51.426;6.934;2023-06-26T15:00:48;24.20;48.60
35027;DHT22;60696;51.426;6.934;2023-06-26T15:03:14;24.00;48.30
35027;DHT22;60696;51.426;6.934;2023-06-26T15:05:40;24.10;48.80
35027;DHT22;60696;51.426;6.934;2023-06-26T15:08:05;24.10;50.60
35027;DHT22;60696;51.426;6.934;2023-06-26T15:10:31;24.20;50.00
35027;DHT22;60696;51.426;6.934;2023-06-26T15:12:56;24.40;47.70
35027;DHT22;60696;51.426;6.934;2023-06-26T15:15:24;24.50;48.10
35027;DHT22;60696;51.426;6.934;2023-06-26T15:17:50;24.50;48.80
35027;DHT22;60696;51.426;6.934;2023-06-26T15:20:16;24.60;50.00
35027;DHT22;60696;51.426;6.934;2023-06-26T15:22:41;24.40;51.40
35027;DHT22;60696;51.426;6.934;2023-06-26T15:25:07;24.40;52.90
35027;DHT22;60696;51.426;6.934;2023-06-26T15:27:33;24.30;53.80
35027;DHT22;60696;51.426;6.934;2023-06-26T15:29:58;24.20;53.90
35027;DHT22;60696;51.426;6.934;2023-06-26T15:32:24;24.50;53.50
35027;DHT22;60696;51.426;6.934;2023-06-26T15:34:50;24.50;52.30
35027;DHT22;60696;51.426;6.934;2023-06-26T15:37:15;24.30;51.60
35027;DHT22;60696;51.426;6.934;2023-06-26T15:39:42;24.10;51.40
35027;DHT22;60696;51.426;6.934;2023-06-26T15:42:08;24.00;51.50
35027;DHT22;60696;51.426;6.934;2023-06-26T15:44:33;24.10;52.00
35027;DHT22;60696;51.426;6.934;2023-06-26T15:46:59;24.10;52.90
35027;DHT22;60696;51.426;6.934;2023-06-26T15:49:25;24.10;52.50
35027;DHT22;60696;51.426;6.934;2023-06-26T15:51:51;24.00;51.60
35027;DHT22;60696;51.426;6.934;2023-06-26T15:54:16;23.90;52.60
35027;DHT22;60696;51.426;6.934;2023-06-26T15:56:42;23.80;52.40
35027;DHT22;60696;51.426;6.934;2023-06-26T15:59:08;23.80;53.70
35027;DHT22;60696;51.426;6.934;2023-06-26T16:01:34;23.90;53.40
35027;DHT22;60696;51.426;6.934;2023-06-26T16:04:00;23.90;53.60
35027;DHT22;60696;51.426;6.934;2023-06-26T16:06:25;23.60;52.70
35027;DHT22;60696;51.426;6.934;2023-06-26T16:08:51;23.40;53.00
35027;DHT22;60696;51.426;6.934;2023-06-26T16:11:18;23.50;51.60
35027;DHT22;60696;51.426;6.934;2023-06-26T16:13:43;23.30;51.40
35027;DHT22;60696;51.426;6.934;2023-06-26T16:16:09;23.40;52.30
35027;DHT22;60696;51.426;6.934;2023-06-26T16:18:35;23.50;53.20
35027;DHT22;60696;51.426;6.934;2023-06-26T16:21:01;23.60;52.90
35027;DHT22;60696;51.426;6.934;2023-06-26T16:23:26;23.60;52.40
35027;DHT22;60696;51.426;6.934;2023-06-26T16:25:52;23.60;53.50
35027;DHT22;60696;51.426;6.934;2023-06-26T16:28:17;23.70;52.50
35027;DHT22;60696;51.426;6.934;2023-06-26T16:30:43;23.50;54.10
35027;DHT22;60696;51.426;6.934;2023-06-26T16:33:09;23.60;53.60
35027;DHT22;60696;51.426;6.934;2023-06-26T16:35:35;23.60;53.00
35027;DHT22;60696;51.426;6.934;2023-06-26T16:38:02;23.60;53.60
35027;DHT22;60696;51.426;6.934;2023-06-26T16:40:28;23.50;53.80
35027;DHT22;60696;51.426;6.934;2023-06-26T16:42:55;23.20;56.10
35027;DHT22;60696;51.426;6.934;2023-06-26T16:45:20;23.20;56.00
35027;DHT22;60696;51.426;6.934;2023-06-26T16:47:47;23.10;54.40
35027;DHT22;60696;51.426;6.934;2023-06-26T16:50:12;23.00;54.60
35027;DHT22;60696;51.426;6.934;2023-06-26T16:52:38;22.80;55.00
35027;DHT22;60696;51.426;6.934;2023-06-26T16:55:06;22.90;56.00
35027;DHT22;60696;51.426;6.934;2023-06-26T16:57:32;22.80;55.80
35027;DHT22;60696;51.426;6.934;2023-06-26T16:59:57;22.90;56.10
35027;DHT22;60696;51.426;6.934;2023-06-26T17:02:23;22.90;56.30
35027;DHT22;60696;51.426;6.934;2023-06-26T17:04:49;22.70;55.10
35027;DHT22;60696;51.426;6.934;2023-06-26T17:07:14;22.60;55.70
35027;DHT22;60696;51.426;6.934;2023-06-26T17:09:40;22.60;55.50
35027;DHT22;60696;51.426;6.934;2023-06-26T17:12:06;22.60;55.70
35027;DHT22;60696;51.426;6.934;2023-06-26T17:14:31;22.50;55.00
35027;DHT22;60696;51.426;6.934;2023-06-26T17:16:57;22.30;55.50
35027;DHT22;60696;51.426;6.934;2023-06-26T17:19:23;22.40;55.50
35027;DHT22;60696;51.426;6.934;2023-06-26T17:21:48;22.30;54.20
35027;DHT22;60696;51.426;6.934;2023-06-26T17:24:14;22.30;54.10
35027;DHT22;60696;51.426;6.934;2023-06-26T17:26:42;22.30;53.00
35027;DHT22;60696;51.426;6.934;2023-06-26T17:29:08;22.40;54.40
35027;DHT22;60696;51.426;6.934;2023-06-26T17:31:34;22.20;53.30
35027;DHT22;60696;51.426;6.934;2023-06-26T17:34:00;22.20;54.60
35027;DHT22;60696;51.426;6.934;2023-06-26T17:36:25;22.10;54.10
35027;DHT22;60696;51.426;6.934;2023-06-26T17:38:51;22.20;55.00
35027;DHT22;60696;51.426;6.934;2023-06-26T17:41:18;22.20;55.20
35027;DHT22;60696;51.426;6.934;2023-06-26T17:43:44;22.10;55.40
35027;DHT22;60696;51.426;6.934;2023-06-26T17:46:10;22.30;55.80
35027;DHT22;60696;51.426;6.934;2023-06-26T17:48:36;22.30;55.20
35027;DHT22;60696;51.426;6.934;2023-06-26T17:51:01;22.30;56.40
35027;DHT22;60696;51.426;6.934;2023-06-26T17:53:28;22.20;56.00
35027;DHT22;60696;51.426;6.934;2023-06-26T17:55:53;22.10;56.30
35027;DHT22;60696;51.426;6.934;2023-06-26T17:58:19;22.20;57.40
35027;DHT22;60696;51.426;6.934;2023-06-26T18:00:44;22.30;56.10
35027;DHT22;60696;51.426;6.934;2023-06-26T18:03:10;22.30;55.40
35027;DHT22;60696;51.426;6.934;2023-06-26T18:05:36;22.30;55.90
35027;DHT22;60696;51.426;6.934;2023-06-26T18:08:02;22.30;55.60
35027;DHT22;60696;51.426;6.934;2023-06-26T18:10:28;22.30;56.00
35027;DHT22;60696;51.426;6.934;2023-06-26T18:12:53;22.40;55.50
35027;DHT22;60696;51.426;6.934;2023-06-26T18:15:22;22.40;55.50
35027;DHT22;60696;51.426;6.934;2023-06-26T18:17:47;22.50;55.70
35027;DHT22;60696;51.426;6.934;2023-06-26T18:20:13;22.60;55.30
35027;DHT22;60696;51.426;6.934;2023-06-26T18:22:38;22.70;54.70
35027;DHT22;60696;51.426;6.934;2023-06-26T18:25:05;22.70;55.50
35027;DHT22;60696;51.426;6.934;2023-06-26T18:27:32;22.60;54.50
35027;DHT22;60696;51.426;6.934;2023-06-26T18:30:01;22.50;55.70
35027;DHT22;60696;51.426;6.934;2023-06-26T18:32:27;22.60;55.80
35027;DHT22;60696;51.426;6.934;2023-06-26T18:34:53;22.50;55.30
35027;DHT22;60696;51.426;6.934;2023-06-26T18:37:19;22.50;54.90
35027;DHT22;60696;51.426;6.934;2023-06-26T18:39:44;22.30;54.20
35027;DHT22;60696;51.426;6.934;2023-06-26T18:42:11;22.10;55.40
35027;DHT22;60696;51.426;6.934;2023-06-26T18:44:36;21.90;55.80
35027;DHT22;60696;51.426;6.934;2023-06-26T18:47:02;21.90;55.40
35027;DHT22;60696;51.426;6.934;2023-06-26T18:49:28;21.90;56.20
35027;DHT22;60696;51.426;6.934;2023-06-26T18:51:54;21.90;56.40
35027;DHT22;60696;51.426;6.934;2023-06-26T18:54:20;21.80;55.20
35027;DHT22;60696;51.426;6.934;2023-06-26T18:56:46;21.50;55.30
35027;DHT22;60696;51.426;6.934;2023-06-26T18:59:12;21.40;55.90
35027;DHT22;60696;51.426;6.934;2023-06-26T19:01:38;21.40;56.80
35027;DHT22;60696;51.426;6.934;2023-06-26T19:04:04;21.30;56.50
35027;DHT22;60696;51.426;6.934;2023-06-26T19:06:30;21.20;56.30
35027;DHT22;60696;51.426;6.934;2023-06-26T19:08:55;21.20;56.30
35027;DHT22;60696;51.426;6.934;2023-06-26T19:11:21;21.10;57.30
35027;DHT22;60696;51.426;6.934;2023-06-26T19:13:47;21.00;56.80
35027;DHT22;60696;51.426;6.934;2023-06-26T19:16:13;21.00;57.40
35027;DHT22;60696;51.426;6.934;2023-06-26T19:18:39;21.00;56.60
35027;DHT22;60696;51.426;6.934;2023-06-26T19:21:05;20.80;56.80
35027;DHT22;60696;51.426;6.934;2023-06-26T19:23:30;20.70;56.70
35027;DHT22;60696;51.426;6.934;2023-06-26T19:25:56;20.70;57.80
35027;DHT22;60696;51.426;6.934;2023-06-26T19:28:22;20.60;58.00
35027;DHT22;60696;51.426;6.934;2023-06-26T19:30:48;20.60;57.80
35027;DHT22;60696;51.426;6.934;2023-06-26T19:33:14;20.50;58.70